createdAt,value
2019-06-15T00:02:05.141Z,5.40
2019-06-15T00:04:33.788Z,7.20
2019-06-15T00:07:02.372Z,5.93
2019-06-15T00:09:31.022Z,6.43
2019-06-15T00:11:59.767Z,5.97
2019-06-15T00:14:28.362Z,6.97
2019-06-15T00:16:56.938Z,4.90
2019-06-15T00:19:25.579Z,6.13
2019-06-15T00:21:54.219Z,4.90
2019-06-15T00:24:34.654Z,7.83
2019-06-15T00:26:53.189Z,9.33
2019-06-15T00:29:21.940Z,7.70
2019-06-15T00:31:50.523Z,7.93
2019-06-15T00:34:19.296Z,8.03
2019-06-15T00:36:47.886Z,9.17
2019-06-15T00:39:16.536Z,9.37
2019-06-15T00:41:45.536Z,8.03
2019-06-15T00:44:14.121Z,10.73
2019-06-15T00:46:42.707Z,8.10
2019-06-15T00:49:11.467Z,8.93
2019-06-15T00:51:40.043Z,5.70
2019-06-15T00:54:08.628Z,5.87
2019-06-15T00:56:37.387Z,4.87
2019-06-15T00:59:06.206Z,7.40
2019-06-15T01:01:35.559Z,8.00
2019-06-15T01:04:04.483Z,8.30
2019-06-15T01:06:33.066Z,6.70
2019-06-15T01:09:01.649Z,5.07
2019-06-15T01:11:30.270Z,6.67
2019-06-15T01:13:58.852Z,6.13
2019-06-15T01:16:27.435Z,5.87
2019-06-15T01:18:56.100Z,5.57
2019-06-15T01:21:24.688Z,4.83
2019-06-15T01:23:53.278Z,4.83
2019-06-15T01:26:22.006Z,6.20
2019-06-15T01:28:50.586Z,4.60
2019-06-15T01:31:19.230Z,5.90
2019-06-15T01:33:47.894Z,5.80
2019-06-15T01:36:16.459Z,4.80
2019-06-15T01:38:45.055Z,6.00
2019-06-15T01:41:13.790Z,5.90
2019-06-15T01:43:42.367Z,5.10
2019-06-15T01:46:11.096Z,5.43
2019-06-15T01:48:39.851Z,5.10
2019-06-15T01:51:08.503Z,5.90
2019-06-15T01:53:37.200Z,4.67
2019-06-15T01:56:05.890Z,5.20
2019-06-15T01:58:34.537Z,4.70
2019-06-15T02:01:03.323Z,5.40
2019-06-15T02:03:31.971Z,3.70
2019-06-15T02:06:00.543Z,4.60
2019-06-15T02:08:29.128Z,5.20
2019-06-15T02:10:57.847Z,5.20
2019-06-15T02:13:26.426Z,5.23
2019-06-15T02:15:55.021Z,4.77
2019-06-15T02:18:23.652Z,5.07
2019-06-15T02:20:52.231Z,5.13
2019-06-15T02:23:20.808Z,4.63
2019-06-15T02:25:49.452Z,5.40
2019-06-15T02:28:18.085Z,5.87
2019-06-15T02:30:46.745Z,4.83
2019-06-15T02:33:15.549Z,5.03
2019-06-15T02:35:44.362Z,5.90
2019-06-15T02:38:13.002Z,5.47
2019-06-15T02:40:41.657Z,4.93
2019-06-15T02:43:10.316Z,4.90
2019-06-15T02:45:38.900Z,4.83
2019-06-15T02:48:07.590Z,4.67
2019-06-15T02:50:36.633Z,5.33
2019-06-15T02:53:05.487Z,5.17
2019-06-15T02:55:34.198Z,4.70
2019-06-15T02:58:02.782Z,4.60
2019-06-15T03:00:55.984Z,5.40
2019-06-15T03:03:24.678Z,6.07
2019-06-15T03:05:53.534Z,5.50
2019-06-15T03:08:23.030Z,4.80
2019-06-15T03:10:51.779Z,5.30
2019-06-15T03:13:20.793Z,5.53
2019-06-15T03:15:49.510Z,4.80
2019-06-15T03:18:18.152Z,5.70
2019-06-15T03:20:46.727Z,6.10
2019-06-15T03:23:15.371Z,5.40
2019-06-15T03:25:43.953Z,5.57
2019-06-15T03:28:12.650Z,5.30
2019-06-15T03:30:42.512Z,4.67
2019-06-15T03:33:11.090Z,6.07
2019-06-15T03:35:39.672Z,5.77
2019-06-15T03:38:08.589Z,6.33
2019-06-15T03:40:37.148Z,6.13
2019-06-15T03:43:05.729Z,5.80
2019-06-15T03:45:34.406Z,5.30
2019-06-15T03:48:02.976Z,5.67
2019-06-15T03:50:31.613Z,6.43
2019-06-15T03:53:00.223Z,5.13
2019-06-15T03:55:29.059Z,10.40
2019-06-15T03:57:57.653Z,11.30
2019-06-15T04:00:38.266Z,5.60
2019-06-15T04:03:06.849Z,5.37
2019-06-15T04:05:35.433Z,5.80
2019-06-15T04:08:04.502Z,5.47
2019-06-15T04:10:33.087Z,5.47
2019-06-15T04:13:01.665Z,6.80
2019-06-15T04:15:30.549Z,6.67
2019-06-15T04:17:59.125Z,6.20
2019-06-15T04:20:27.708Z,5.53
2019-06-15T04:22:56.343Z,5.43
2019-06-15T04:25:24.921Z,4.90
2019-06-15T04:27:53.500Z,7.20
2019-06-15T04:30:22.134Z,5.97
2019-06-15T04:32:50.777Z,6.00
2019-06-15T04:35:19.582Z,5.93
2019-06-15T04:37:48.354Z,5.90
2019-06-15T04:40:17.001Z,5.60
2019-06-15T04:42:45.584Z,5.40
2019-06-15T04:45:14.420Z,6.00
2019-06-15T04:47:42.998Z,6.10
2019-06-15T04:50:11.658Z,6.23
2019-06-15T04:52:40.334Z,6.10
2019-06-15T04:55:08.909Z,5.90
2019-06-15T04:57:38.172Z,6.33
2019-06-15T05:00:13.675Z,7.23
2019-06-15T05:02:42.276Z,8.50
2019-06-15T05:05:10.907Z,7.63
2019-06-15T05:07:39.678Z,7.17
2019-06-15T05:10:08.517Z,8.50
2019-06-15T05:12:37.140Z,6.70
2019-06-15T05:15:06.944Z,7.40
2019-06-15T05:17:35.524Z,6.80
2019-06-15T05:20:05.913Z,7.00
2019-06-15T05:22:34.567Z,7.10
2019-06-15T05:25:03.462Z,7.43
2019-06-15T05:27:32.057Z,7.30
2019-06-15T05:30:00.684Z,6.13
2019-06-15T05:32:29.262Z,7.20
2019-06-15T05:34:57.852Z,7.43
2019-06-15T05:37:26.515Z,8.67
2019-06-15T05:39:55.178Z,7.63
2019-06-15T05:42:23.755Z,9.30
2019-06-15T05:44:52.468Z,8.37
2019-06-15T05:47:21.065Z,7.40
2019-06-15T05:49:49.649Z,7.93
2019-06-15T05:52:18.360Z,7.10
2019-06-15T05:54:46.949Z,7.83
2019-06-15T05:57:21.743Z,8.50
2019-06-15T05:59:46.034Z,7.80
2019-06-15T06:02:14.619Z,6.60
2019-06-15T06:04:43.270Z,7.20
2019-06-15T06:07:11.898Z,8.63
2019-06-15T06:09:40.483Z,8.07
2019-06-15T06:12:09.062Z,8.10
2019-06-15T06:14:37.855Z,7.53
2019-06-15T06:17:06.501Z,6.90
2019-06-15T06:19:35.142Z,6.97
2019-06-15T06:22:03.826Z,7.33
2019-06-15T06:24:32.466Z,8.27
2019-06-15T06:27:01.114Z,9.03
2019-06-15T06:29:30.093Z,7.50
2019-06-15T06:31:58.683Z,8.10
2019-06-15T06:34:27.268Z,7.73
2019-06-15T06:36:55.911Z,9.20
2019-06-15T06:39:24.490Z,8.00
2019-06-15T06:41:53.071Z,7.70
2019-06-15T06:44:21.709Z,7.40
2019-06-15T06:46:50.286Z,8.27
2019-06-15T06:49:18.871Z,8.67
2019-06-15T06:51:47.473Z,7.20
2019-06-15T06:54:16.111Z,8.50
2019-06-15T06:56:44.715Z,7.37
2019-06-15T06:59:13.376Z,8.47
2019-06-15T07:01:42.777Z,7.83
2019-06-15T07:04:11.451Z,6.47
2019-06-15T07:06:40.671Z,8.10
2019-06-15T07:09:09.841Z,7.47
2019-06-15T07:11:39.017Z,8.05
2019-06-15T07:14:08.254Z,7.75
2019-06-15T07:16:37.418Z,7.33
2019-06-15T07:19:06.679Z,6.75
2019-06-15T07:21:35.982Z,7.03
2019-06-15T07:24:05.216Z,7.55
2019-06-15T07:26:34.395Z,7.80
2019-06-15T07:29:04.172Z,7.42
2019-06-15T07:31:33.351Z,7.60
2019-06-15T07:34:02.623Z,6.62
2019-06-15T07:36:31.845Z,7.28
2019-06-15T07:39:01.031Z,7.83
2019-06-15T07:41:30.199Z,7.60
2019-06-15T07:43:59.462Z,7.87
2019-06-15T07:46:28.638Z,7.03
2019-06-15T07:48:57.798Z,6.75
2019-06-15T07:51:27.338Z,7.85
2019-06-15T07:53:55.918Z,8.33
2019-06-15T07:56:24.512Z,7.50
2019-06-15T07:58:53.233Z,5.93
2019-06-15T08:01:21.804Z,5.53
2019-06-15T08:03:50.453Z,5.83
2019-06-15T08:06:19.090Z,5.40
2019-06-15T08:08:48.252Z,5.60
2019-06-15T08:11:17.486Z,4.53
2019-06-15T08:13:46.687Z,5.55
2019-06-15T08:16:15.918Z,5.10
2019-06-15T08:18:45.078Z,4.30
2019-06-15T08:21:13.743Z,4.40
2019-06-15T08:23:42.301Z,4.57
2019-06-15T08:26:10.963Z,4.90
2019-06-15T08:28:40.671Z,4.37
2019-06-15T08:31:09.440Z,4.10
2019-06-15T08:33:38.045Z,4.30
2019-06-15T08:36:06.680Z,3.50
2019-06-15T08:38:35.261Z,4.30
2019-06-15T08:41:03.974Z,3.50
2019-06-15T08:43:32.713Z,3.53
2019-06-15T08:46:01.541Z,3.83
2019-06-15T08:48:30.247Z,3.87
2019-06-15T08:50:58.946Z,2.80
2019-06-15T08:53:27.534Z,4.07
2019-06-15T08:55:56.113Z,3.90
2019-06-15T08:58:24.768Z,3.90
2019-06-15T09:00:53.350Z,3.67
2019-06-15T09:03:21.996Z,3.80
2019-06-15T09:05:50.717Z,3.53
2019-06-15T09:08:19.293Z,3.47
2019-06-15T09:10:47.875Z,2.80
2019-06-15T09:13:16.528Z,3.20
2019-06-15T09:15:52.693Z,3.70
2019-06-15T09:18:21.972Z,2.60
2019-06-15T09:20:51.434Z,3.40
2019-06-15T09:23:20.351Z,2.50
2019-06-15T09:25:49.298Z,2.57
2019-06-15T09:28:18.603Z,2.67
2019-06-15T09:30:47.841Z,3.20
2019-06-15T09:33:17.080Z,2.92
2019-06-15T09:35:46.293Z,2.80
2019-06-15T09:38:15.426Z,2.55
2019-06-15T09:40:44.675Z,2.95
2019-06-15T09:43:13.989Z,3.20
2019-06-15T09:45:43.153Z,2.95
2019-06-15T09:48:12.314Z,2.87
2019-06-15T09:50:41.536Z,3.50
2019-06-15T09:53:10.696Z,2.58
2019-06-15T09:55:39.850Z,2.42
2019-06-15T09:58:09.085Z,2.65
2019-06-15T10:00:38.240Z,2.87
2019-06-15T10:03:07.404Z,2.62
2019-06-15T10:05:36.636Z,3.95
2019-06-15T10:08:06.320Z,2.85
2019-06-15T10:10:35.548Z,3.10
2019-06-15T10:13:04.832Z,3.20
2019-06-15T10:15:33.963Z,2.92
2019-06-15T10:18:03.132Z,2.83
2019-06-15T10:20:32.362Z,2.42
2019-06-15T10:23:01.506Z,2.30
2019-06-15T10:25:30.667Z,2.67
2019-06-15T10:27:59.280Z,2.43
2019-06-15T10:30:27.873Z,2.80
2019-06-15T10:32:56.439Z,2.27
2019-06-15T10:35:25.087Z,2.17
2019-06-15T10:37:53.670Z,2.10
2019-06-15T10:40:22.321Z,2.25
2019-06-15T10:42:51.144Z,1.85
2019-06-15T10:45:20.539Z,2.70
2019-06-15T10:47:49.127Z,2.00
2019-06-15T10:50:17.896Z,2.22
2019-06-15T10:52:46.466Z,1.85
2019-06-15T10:55:15.098Z,2.10
2019-06-15T10:57:43.733Z,1.95
2019-06-15T11:00:13.452Z,1.70
2019-06-15T11:02:42.612Z,2.70
2019-06-15T11:05:14.271Z,2.00
2019-06-15T11:07:43.439Z,1.90
2019-06-15T11:10:14.956Z,2.72
2019-06-15T11:12:46.758Z,2.47
2019-06-15T11:15:15.176Z,2.25
2019-06-15T11:17:44.418Z,2.85
2019-06-15T11:20:14.005Z,2.52
2019-06-15T11:22:43.163Z,2.62
2019-06-15T11:25:12.403Z,2.55
2019-06-15T11:27:41.592Z,2.17
2019-06-15T11:30:14.163Z,2.98
2019-06-15T11:32:41.872Z,2.55
2019-06-15T11:35:11.296Z,3.00
2019-06-15T11:37:40.497Z,2.30
2019-06-15T11:40:09.987Z,3.75
2019-06-15T11:42:39.323Z,3.25
2019-06-15T11:45:08.840Z,2.77
2019-06-15T11:47:37.990Z,3.10
2019-06-15T11:50:07.623Z,3.10
2019-06-15T11:52:36.786Z,3.33
2019-06-15T11:55:06.684Z,4.10
2019-06-15T11:57:35.980Z,2.45
2019-06-15T12:00:06.198Z,2.92
2019-06-15T12:02:34.811Z,3.20
2019-06-15T12:05:05.198Z,3.50
2019-06-15T12:07:34.515Z,3.00
2019-06-15T12:10:05.151Z,3.90
2019-06-15T12:12:33.855Z,2.70
2019-06-15T12:15:02.455Z,2.73
2019-06-15T12:17:31.026Z,2.70
2019-06-15T12:19:59.654Z,2.73
2019-06-15T12:22:28.311Z,3.50
2019-06-15T12:24:56.903Z,3.30
2019-06-15T12:27:26.454Z,4.13
2019-06-15T12:29:55.043Z,4.47
2019-06-15T12:32:23.624Z,3.77
2019-06-15T12:34:52.235Z,3.07
2019-06-15T12:37:20.820Z,2.90
2019-06-15T12:39:49.401Z,4.00
2019-06-15T12:42:18.008Z,3.00
2019-06-15T12:44:46.588Z,4.47
2019-06-15T12:47:15.169Z,3.70
2019-06-15T12:49:43.948Z,3.83
2019-06-15T12:52:12.526Z,4.47
2019-06-15T12:54:41.104Z,3.37
2019-06-15T12:57:09.722Z,3.80
2019-06-15T12:59:38.361Z,4.03
2019-06-15T13:02:06.966Z,4.10
2019-06-15T13:04:35.595Z,3.27
2019-06-15T13:07:04.316Z,11.33
2019-06-15T13:09:32.904Z,8.33
2019-06-15T13:12:01.546Z,6.30
2019-06-15T13:14:30.129Z,6.57
2019-06-15T13:16:58.704Z,4.73
2019-06-15T13:19:27.350Z,8.70
2019-06-15T13:21:55.942Z,12.30
2019-06-15T13:24:24.519Z,6.37
2019-06-15T13:26:53.213Z,10.17
2019-06-15T13:29:21.790Z,4.70
2019-06-15T13:31:50.553Z,4.73
2019-06-15T13:34:19.416Z,4.43
2019-06-15T13:36:48.005Z,6.07
2019-06-15T13:39:16.661Z,5.60
2019-06-15T13:41:45.289Z,3.43
2019-06-15T13:44:13.866Z,4.90
2019-06-15T13:46:42.454Z,4.07
2019-06-15T13:49:11.077Z,4.93
2019-06-15T13:51:39.660Z,6.83
2019-06-15T13:54:08.393Z,4.03
2019-06-15T13:56:37.046Z,4.13
2019-06-15T13:59:05.642Z,5.40
2019-06-15T14:01:34.762Z,3.90
2019-06-15T14:04:03.435Z,3.10
2019-06-15T14:06:32.015Z,2.60
2019-06-15T14:09:00.594Z,3.17
2019-06-15T14:11:29.201Z,3.37
2019-06-15T14:13:57.776Z,2.47
2019-06-15T14:16:26.350Z,2.60
2019-06-15T14:18:55.004Z,3.23
2019-06-15T14:21:23.650Z,2.47
2019-06-15T14:23:52.223Z,2.33
2019-06-15T14:26:20.839Z,2.57
2019-06-15T14:28:49.411Z,2.70
2019-06-15T14:31:17.995Z,2.50
2019-06-15T14:33:46.626Z,2.50
2019-06-15T14:36:15.238Z,2.60
2019-06-15T14:38:43.890Z,2.57
2019-06-15T14:41:12.536Z,2.63
2019-06-15T14:43:41.116Z,2.63
2019-06-15T14:46:09.713Z,2.57
2019-06-15T14:48:38.353Z,2.77
2019-06-15T14:51:06.935Z,2.60
2019-06-15T14:53:36.645Z,4.30
2019-06-15T14:56:06.829Z,2.57
2019-06-15T14:58:36.546Z,2.67
2019-06-15T15:01:06.497Z,5.03
2019-06-15T15:03:37.762Z,2.73
2019-06-15T15:06:06.412Z,3.27
2019-06-15T15:08:36.740Z,3.33
2019-06-15T15:11:06.599Z,3.30
2019-06-15T15:13:36.648Z,2.67
2019-06-15T15:16:07.112Z,4.60
2019-06-15T15:18:35.948Z,3.33
2019-06-15T15:21:06.868Z,2.13
2019-06-15T15:23:36.088Z,3.10
2019-06-15T15:26:06.598Z,2.60
2019-06-15T15:28:36.574Z,2.60
2019-06-15T15:31:06.561Z,2.30
2019-06-15T15:33:36.453Z,2.90
2019-06-15T15:36:06.949Z,2.40
2019-06-15T15:38:36.274Z,2.40
2019-06-15T15:41:06.705Z,1.60
2019-06-15T15:43:36.969Z,2.23
2019-06-15T15:46:07.083Z,2.50
2019-06-15T15:48:36.393Z,2.60
2019-06-15T15:51:06.547Z,2.00
2019-06-15T15:53:37.455Z,2.43
2019-06-15T15:56:06.419Z,2.07
2019-06-15T15:58:36.315Z,2.17
2019-06-15T16:01:06.617Z,3.33
2019-06-15T16:03:36.930Z,2.13
2019-06-15T16:06:05.812Z,2.50
2019-06-15T16:08:34.463Z,2.77
2019-06-15T16:11:03.458Z,2.53
2019-06-15T16:13:32.088Z,2.50
2019-06-15T16:16:00.668Z,2.80
2019-06-15T16:18:29.402Z,2.80
2019-06-15T16:20:58.068Z,2.90
2019-06-15T16:23:26.631Z,4.27
2019-06-15T16:25:55.424Z,7.37
2019-06-15T16:28:26.370Z,3.33
2019-06-15T16:31:08.646Z,6.50
2019-06-15T16:33:26.583Z,3.23
2019-06-15T16:35:56.877Z,2.50
2019-06-15T16:38:27.572Z,4.30
2019-06-15T16:40:56.216Z,2.83
2019-06-15T16:43:28.067Z,3.20
2019-06-15T16:45:57.073Z,3.27
2019-06-15T16:48:26.089Z,3.67
2019-06-15T16:50:57.613Z,2.90
2019-06-15T16:53:26.025Z,2.93
2019-06-15T16:55:56.553Z,3.33
2019-06-15T16:58:26.491Z,2.40
2019-06-15T17:00:57.110Z,2.73
2019-06-15T17:03:29.106Z,3.00
2019-06-15T17:05:57.440Z,2.60
2019-06-15T17:08:26.041Z,3.17
2019-06-15T17:10:56.283Z,2.67
2019-06-15T17:13:26.002Z,3.17
2019-06-15T17:15:56.992Z,6.60
2019-06-15T17:18:26.176Z,2.70
2019-06-15T17:20:56.496Z,3.37
2019-06-15T17:23:27.719Z,3.20
2019-06-15T17:25:55.873Z,3.93
2019-06-15T17:28:26.536Z,2.80
2019-06-15T17:30:56.668Z,3.40
2019-06-15T17:33:36.580Z,3.33
2019-06-15T17:36:02.606Z,2.53
2019-06-15T17:38:27.358Z,3.27
2019-06-15T17:40:57.072Z,4.60
2019-06-15T17:43:26.801Z,3.90
2019-06-15T17:45:56.470Z,4.73
2019-06-15T17:48:25.421Z,2.47
2019-06-15T17:50:54.068Z,2.40
2019-06-15T17:53:22.641Z,3.27
2019-06-15T17:55:51.331Z,2.87
2019-06-15T17:58:19.900Z,3.30
2019-06-15T18:00:49.025Z,4.23
2019-06-15T18:03:17.850Z,2.90
2019-06-15T18:05:48.208Z,3.80
2019-06-15T18:08:16.969Z,6.60
2019-06-15T18:10:47.550Z,5.20
2019-06-15T18:13:17.050Z,2.63
2019-06-15T18:15:47.734Z,5.20
2019-06-15T18:18:17.107Z,4.83
2019-06-15T18:20:45.955Z,2.63
2019-06-15T18:23:17.486Z,3.50
2019-06-15T18:25:46.951Z,2.90
2019-06-15T18:28:17.722Z,3.37
2019-06-15T18:30:46.971Z,4.47
2019-06-15T18:33:16.596Z,4.07
2019-06-15T18:35:47.520Z,3.27
2019-06-15T18:38:16.110Z,2.90
2019-06-15T18:40:44.824Z,3.30
2019-06-15T18:43:13.399Z,2.67
2019-06-15T18:45:42.056Z,2.70
2019-06-15T18:48:10.708Z,2.80
2019-06-15T18:50:41.320Z,2.33
2019-06-15T18:53:10.067Z,3.50
2019-06-15T18:55:38.707Z,4.57
2019-06-15T18:58:07.429Z,5.13
2019-06-15T19:00:37.087Z,2.80
2019-06-15T19:03:07.015Z,3.70
2019-06-15T19:05:37.290Z,2.80
2019-06-15T19:08:06.673Z,2.60
2019-06-15T19:10:38.713Z,2.67
2019-06-15T19:13:07.814Z,2.70
2019-06-15T19:15:38.395Z,2.57
2019-06-15T19:18:07.720Z,2.70
2019-06-15T19:20:37.354Z,2.87
2019-06-15T19:23:06.928Z,2.57
2019-06-15T19:25:36.475Z,2.70
2019-06-15T19:28:05.852Z,2.40
2019-06-15T19:30:37.148Z,2.20
2019-06-15T19:33:05.243Z,2.43
2019-06-15T19:35:36.357Z,2.53
2019-06-15T19:38:06.350Z,2.37
2019-06-15T19:40:37.828Z,2.70
2019-06-15T19:43:06.578Z,3.17
2019-06-15T19:45:37.028Z,3.13
2019-06-15T19:48:06.827Z,2.90
2019-06-15T19:50:36.195Z,3.90
2019-06-15T19:53:06.974Z,2.80
2019-06-15T19:55:36.272Z,5.03
2019-06-15T19:58:07.211Z,4.70
2019-06-15T20:00:36.590Z,3.77
2019-06-15T20:03:07.133Z,4.73
2019-06-15T20:05:37.006Z,2.80
2019-06-15T20:08:06.943Z,3.30
2019-06-15T20:10:36.965Z,3.47
2019-06-15T20:13:07.123Z,4.30
2019-06-15T20:15:37.607Z,3.73
2019-06-15T20:18:06.924Z,5.00
2019-06-15T20:20:36.911Z,7.23
2019-06-15T20:23:07.215Z,4.97
2019-06-15T20:25:36.787Z,5.73
2019-06-15T20:28:07.245Z,5.17
2019-06-15T20:30:36.994Z,3.37
2019-06-15T20:33:07.773Z,3.70
2019-06-15T20:35:36.722Z,3.80
2019-06-15T20:38:05.296Z,3.17
2019-06-15T20:40:36.263Z,3.03
2019-06-15T20:43:04.422Z,3.90
2019-06-15T20:45:32.996Z,3.23
2019-06-15T20:48:01.631Z,3.50
2019-06-15T20:50:30.208Z,4.70
2019-06-15T20:52:58.793Z,6.90
2019-06-15T20:55:27.512Z,4.90
2019-06-15T20:57:56.825Z,4.40
2019-06-15T21:00:26.416Z,4.60
2019-06-15T21:02:56.195Z,4.27
2019-06-15T21:05:34.769Z,4.60
2019-06-15T21:07:57.517Z,4.60
2019-06-15T21:10:26.450Z,4.97
2019-06-15T21:12:55.144Z,3.83
2019-06-15T21:15:26.765Z,4.67
2019-06-15T21:17:57.119Z,4.83
2019-06-15T21:20:26.788Z,4.47
2019-06-15T21:22:57.259Z,5.93
2019-06-15T21:25:26.594Z,4.90
2019-06-15T21:27:56.733Z,4.40
2019-06-15T21:30:27.059Z,6.83
2019-06-15T21:32:56.141Z,6.60
2019-06-15T21:35:26.848Z,6.27
2019-06-15T21:37:57.240Z,7.43
2019-06-15T21:40:27.263Z,8.07
2019-06-15T21:42:56.397Z,8.30
2019-06-15T21:45:25.199Z,7.40
2019-06-15T21:47:55.996Z,4.80
2019-06-15T21:50:26.681Z,3.97
2019-06-15T21:52:56.469Z,4.13
2019-06-15T21:55:26.848Z,4.03
2019-06-15T21:57:56.447Z,3.67
2019-06-15T22:00:47.567Z,3.77
2019-06-15T22:03:16.874Z,3.73
2019-06-15T22:05:47.335Z,3.37
2019-06-15T22:08:17.088Z,3.27
2019-06-15T22:10:45.851Z,3.23
2019-06-15T22:13:16.039Z,3.23
2019-06-15T22:15:46.658Z,3.27
2019-06-15T22:18:16.410Z,2.70
2019-06-15T22:20:46.994Z,5.40
2019-06-15T22:23:16.247Z,4.90
2019-06-15T22:25:46.467Z,5.93
2019-06-15T22:28:16.449Z,5.33
2019-06-15T22:30:46.259Z,3.87
2019-06-15T22:33:16.506Z,3.73
2019-06-15T22:35:47.474Z,3.37
2019-06-15T22:38:15.896Z,4.87
2019-06-15T22:40:46.887Z,5.90
2019-06-15T22:43:16.776Z,6.23
2019-06-15T22:45:47.621Z,4.53
2019-06-15T22:48:16.516Z,4.80
2019-06-15T22:50:46.808Z,4.87
2019-06-15T22:53:16.399Z,4.73
2019-06-15T22:55:46.263Z,4.73
2019-06-15T22:58:17.777Z,5.90
2019-06-15T23:00:47.011Z,3.60
2019-06-15T23:03:16.881Z,3.67
2019-06-15T23:05:46.358Z,14.40
2019-06-15T23:08:16.314Z,19.53
2019-06-15T23:10:46.868Z,6.60
2019-06-15T23:13:16.037Z,4.03
2019-06-15T23:15:47.007Z,3.93
2019-06-15T23:18:17.121Z,3.63
2019-06-15T23:20:46.237Z,3.77
2019-06-15T23:23:16.168Z,3.00
2019-06-15T23:25:47.040Z,3.17
2019-06-15T23:28:16.513Z,2.97
2019-06-15T23:30:47.173Z,3.13
2019-06-15T23:33:17.324Z,3.50
2019-06-15T23:35:53.542Z,5.63
2019-06-15T23:38:22.160Z,3.70
2019-06-15T23:40:50.783Z,5.30
2019-06-15T23:43:19.524Z,2.93
2019-06-15T23:45:48.177Z,3.17
2019-06-15T23:48:16.753Z,3.20
2019-06-15T23:50:46.295Z,3.80
2019-06-15T23:53:16.864Z,3.40
2019-06-15T23:55:47.325Z,3.77
2019-06-15T23:58:17.518Z,2.80
